sensor_id;sensor_type;location;lat;lon;timestamp;P1;durP1;ratioP1;P2;durP2;ratioP2
13753;SDS011;6948;51.216;6.778;2023-06-22T00:01:28;4.90;;;3.15;;
13753;SDS011;6948;51.216;6.778;2023-06-22T00:03:54;3.72;;;3.22;;
13753;SDS011;6948;51.216;6.778;2023-06-22T00:06:20;4.57;;;3.30;;
13753;SDS011;6948;51.216;6.778;2023-06-22T00:08:46;4.80;;;3.55;;
13753;SDS011;6948;51.216;6.778;2023-06-22T00:11:12;5.20;;;2.97;;
13753;SDS011;6948;51.216;6.778;2023-06-22T00:13:38;4.45;;;3.30;;
13753;SDS011;6948;51.216;6.778;2023-06-22T00:16:04;4.32;;;3.33;;
13753;SDS011;6948;51.216;6.778;2023-06-22T00:18:30;3.80;;;3.22;;
13753;SDS011;6948;51.216;6.778;2023-06-22T00:20:57;4.03;;;2.78;;
13753;SDS011;6948;51.216;6.778;2023-06-22T00:23:23;5.20;;;2.95;;
13753;SDS011;6948;51.216;6.778;2023-06-22T00:25:50;4.82;;;3.22;;
13753;SDS011;6948;51.216;6.778;2023-06-22T00:28:16;3.85;;;3.15;;
13753;SDS011;6948;51.216;6.778;2023-06-22T00:30:42;4.55;;;3.03;;
13753;SDS011;6948;51.216;6.778;2023-06-22T00:33:08;3.72;;;3.10;;
13753;SDS011;6948;51.216;6.778;2023-06-22T00:35:34;3.33;;;3.03;;
13753;SDS011;6948;51.216;6.778;2023-06-22T00:38:00;6.43;;;3.40;;
13753;SDS011;6948;51.216;6.778;2023-06-22T00:40:27;4.10;;;3.30;;
13753;SDS011;6948;51.216;6.778;2023-06-22T00:42:54;7.30;;;3.40;;
13753;SDS011;6948;51.216;6.778;2023-06-22T00:45:20;6.05;;;3.58;;
13753;SDS011;6948;51.216;6.778;2023-06-22T00:47:48;4.78;;;3.38;;
13753;SDS011;6948;51.216;6.778;2023-06-22T00:50:16;3.92;;;3.25;;
13753;SDS011;6948;51.216;6.778;2023-06-22T00:52:45;4.28;;;3.33;;
13753;SDS011;6948;51.216;6.778;2023-06-22T00:55:12;5.07;;;3.58;;
13753;SDS011;6948;51.216;6.778;2023-06-22T00:57:39;5.57;;;3.58;;
13753;SDS011;6948;51.216;6.778;2023-06-22T01:00:05;7.60;;;3.78;;
13753;SDS011;6948;51.216;6.778;2023-06-22T01:02:33;7.78;;;3.63;;
13753;SDS011;6948;51.216;6.778;2023-06-22T01:04:59;4.50;;;3.63;;
13753;SDS011;6948;51.216;6.778;2023-06-22T01:10:05;4.28;;;3.65;;
13753;SDS011;6948;51.216;6.778;2023-06-22T01:12:34;5.53;;;3.90;;
13753;SDS011;6948;51.216;6.778;2023-06-22T01:15:05;6.85;;;4.30;;
13753;SDS011;6948;51.216;6.778;2023-06-22T01:17:32;4.90;;;3.95;;
13753;SDS011;6948;51.216;6.778;2023-06-22T01:19:58;5.72;;;4.22;;
13753;SDS011;6948;51.216;6.778;2023-06-22T01:22:28;7.63;;;4.72;;
13753;SDS011;6948;51.216;6.778;2023-06-22T01:27:40;6.50;;;4.38;;
13753;SDS011;6948;51.216;6.778;2023-06-22T01:30:11;6.10;;;4.75;;
13753;SDS011;6948;51.216;6.778;2023-06-22T01:32:39;6.93;;;4.70;;
13753;SDS011;6948;51.216;6.778;2023-06-22T01:35:07;6.90;;;4.47;;
13753;SDS011;6948;51.216;6.778;2023-06-22T01:37:34;6.00;;;4.90;;
13753;SDS011;6948;51.216;6.778;2023-06-22T01:40:01;7.07;;;4.87;;
13753;SDS011;6948;51.216;6.778;2023-06-22T01:42:29;6.20;;;5.13;;
13753;SDS011;6948;51.216;6.778;2023-06-22T01:44:55;5.87;;;5.03;;
13753;SDS011;6948;51.216;6.778;2023-06-22T01:47:22;6.15;;;5.32;;
13753;SDS011;6948;51.216;6.778;2023-06-22T01:49:49;6.67;;;5.03;;
13753;SDS011;6948;51.216;6.778;2023-06-22T01:52:16;6.95;;;5.30;;
13753;SDS011;6948;51.216;6.778;2023-06-22T01:54:43;9.20;;;5.20;;
13753;SDS011;6948;51.216;6.778;2023-06-22T01:57:09;7.07;;;5.40;;
13753;SDS011;6948;51.216;6.778;2023-06-22T01:59:37;7.05;;;5.22;;
13753;SDS011;6948;51.216;6.778;2023-06-22T02:02:07;7.10;;;5.47;;
13753;SDS011;6948;51.216;6.778;2023-06-22T02:04:36;6.23;;;5.63;;
13753;SDS011;6948;51.216;6.778;2023-06-22T02:07:04;7.22;;;5.30;;
13753;SDS011;6948;51.216;6.778;2023-06-22T02:09:31;7.05;;;5.40;;
13753;SDS011;6948;51.216;6.778;2023-06-22T02:11:59;8.75;;;5.57;;
13753;SDS011;6948;51.216;6.778;2023-06-22T02:14:26;9.77;;;5.45;;
13753;SDS011;6948;51.216;6.778;2023-06-22T02:16:52;7.65;;;6.40;;
13753;SDS011;6948;51.216;6.778;2023-06-22T02:19:22;6.45;;;5.75;;
13753;SDS011;6948;51.216;6.778;2023-06-22T02:21:48;8.15;;;6.38;;
13753;SDS011;6948;51.216;6.778;2023-06-22T02:24:14;7.40;;;5.70;;
13753;SDS011;6948;51.216;6.778;2023-06-22T02:26:40;6.32;;;5.68;;
13753;SDS011;6948;51.216;6.778;2023-06-22T02:29:07;7.95;;;5.90;;
13753;SDS011;6948;51.216;6.778;2023-06-22T02:31:33;9.50;;;6.45;;
13753;SDS011;6948;51.216;6.778;2023-06-22T02:33:59;6.57;;;5.90;;
13753;SDS011;6948;51.216;6.778;2023-06-22T02:36:25;10.13;;;6.85;;
13753;SDS011;6948;51.216;6.778;2023-06-22T02:38:55;10.05;;;6.28;;
13753;SDS011;6948;51.216;6.778;2023-06-22T02:41:25;8.65;;;6.03;;
13753;SDS011;6948;51.216;6.778;2023-06-22T02:43:51;8.38;;;6.35;;
13753;SDS011;6948;51.216;6.778;2023-06-22T02:46:17;7.63;;;6.80;;
13753;SDS011;6948;51.216;6.778;2023-06-22T02:48:44;7.43;;;6.33;;
13753;SDS011;6948;51.216;6.778;2023-06-22T02:51:10;7.47;;;6.68;;
13753;SDS011;6948;51.216;6.778;2023-06-22T02:53:35;12.13;;;7.05;;
13753;SDS011;6948;51.216;6.778;2023-06-22T02:56:02;7.63;;;6.80;;
13753;SDS011;6948;51.216;6.778;2023-06-22T02:58:30;9.57;;;6.57;;
13753;SDS011;6948;51.216;6.778;2023-06-22T03:00:58;9.83;;;6.70;;
13753;SDS011;6948;51.216;6.778;2023-06-22T03:03:29;8.02;;;6.68;;
13753;SDS011;6948;51.216;6.778;2023-06-22T03:05:55;9.90;;;7.17;;
13753;SDS011;6948;51.216;6.778;2023-06-22T03:08:21;7.00;;;6.07;;
13753;SDS011;6948;51.216;6.778;2023-06-22T03:10:47;7.67;;;6.20;;
13753;SDS011;6948;51.216;6.778;2023-06-22T03:13:13;8.70;;;6.47;;
13753;SDS011;6948;51.216;6.778;2023-06-22T03:15:39;8.02;;;6.70;;
13753;SDS011;6948;51.216;6.778;2023-06-22T03:18:05;7.47;;;6.10;;
13753;SDS011;6948;51.216;6.778;2023-06-22T03:20:31;8.60;;;6.95;;
13753;SDS011;6948;51.216;6.778;2023-06-22T03:22:58;7.57;;;6.10;;
13753;SDS011;6948;51.216;6.778;2023-06-22T03:25:25;8.10;;;6.65;;
13753;SDS011;6948;51.216;6.778;2023-06-22T03:27:51;7.80;;;6.20;;
13753;SDS011;6948;51.216;6.778;2023-06-22T03:30:17;8.30;;;6.25;;
13753;SDS011;6948;51.216;6.778;2023-06-22T03:32:43;12.07;;;6.78;;
13753;SDS011;6948;51.216;6.778;2023-06-22T03:35:09;8.88;;;7.35;;
13753;SDS011;6948;51.216;6.778;2023-06-22T03:37:38;8.65;;;6.72;;
13753;SDS011;6948;51.216;6.778;2023-06-22T03:40:04;9.88;;;7.53;;
13753;SDS011;6948;51.216;6.778;2023-06-22T03:42:30;8.93;;;7.47;;
13753;SDS011;6948;51.216;6.778;2023-06-22T03:44:56;8.52;;;7.60;;
13753;SDS011;6948;51.216;6.778;2023-06-22T03:47:22;9.02;;;7.72;;
13753;SDS011;6948;51.216;6.778;2023-06-22T03:49:48;8.45;;;7.20;;
13753;SDS011;6948;51.216;6.778;2023-06-22T03:52:14;8.25;;;7.10;;
13753;SDS011;6948;51.216;6.778;2023-06-22T03:54:40;9.13;;;7.30;;
13753;SDS011;6948;51.216;6.778;2023-06-22T03:57:06;8.90;;;7.73;;
13753;SDS011;6948;51.216;6.778;2023-06-22T03:59:32;9.10;;;7.77;;
13753;SDS011;6948;51.216;6.778;2023-06-22T04:01:58;8.27;;;7.00;;
13753;SDS011;6948;51.216;6.778;2023-06-22T04:04:25;8.47;;;7.60;;
13753;SDS011;6948;51.216;6.778;2023-06-22T04:06:51;8.10;;;7.27;;
13753;SDS011;6948;51.216;6.778;2023-06-22T04:09:17;8.60;;;7.30;;
13753;SDS011;6948;51.216;6.778;2023-06-22T04:11:43;8.57;;;7.10;;
13753;SDS011;6948;51.216;6.778;2023-06-22T04:14:09;8.20;;;7.40;;
13753;SDS011;6948;51.216;6.778;2023-06-22T04:16:35;7.57;;;6.77;;
13753;SDS011;6948;51.216;6.778;2023-06-22T04:19:01;10.47;;;7.70;;
13753;SDS011;6948;51.216;6.778;2023-06-22T04:21:27;8.37;;;6.80;;
13753;SDS011;6948;51.216;6.778;2023-06-22T04:23:53;8.80;;;7.30;;
13753;SDS011;6948;51.216;6.778;2023-06-22T04:26:19;8.00;;;7.07;;
13753;SDS011;6948;51.216;6.778;2023-06-22T04:28:46;7.40;;;6.70;;
13753;SDS011;6948;51.216;6.778;2023-06-22T04:31:16;8.27;;;7.33;;
13753;SDS011;6948;51.216;6.778;2023-06-22T04:33:42;7.93;;;7.13;;
13753;SDS011;6948;51.216;6.778;2023-06-22T04:36:08;8.67;;;6.73;;
13753;SDS011;6948;51.216;6.778;2023-06-22T04:38:38;7.03;;;6.00;;
13753;SDS011;6948;51.216;6.778;2023-06-22T04:41:04;8.70;;;6.53;;
13753;SDS011;6948;51.216;6.778;2023-06-22T04:43:30;7.22;;;6.15;;
13753;SDS011;6948;51.216;6.778;2023-06-22T04:45:56;9.80;;;7.18;;
13753;SDS011;6948;51.216;6.778;2023-06-22T04:48:28;10.67;;;7.80;;
13753;SDS011;6948;51.216;6.778;2023-06-22T04:50:57;9.70;;;7.32;;
13753;SDS011;6948;51.216;6.778;2023-06-22T04:53:27;8.95;;;7.38;;
13753;SDS011;6948;51.216;6.778;2023-06-22T04:55:54;8.15;;;7.18;;
13753;SDS011;6948;51.216;6.778;2023-06-22T04:58:20;7.22;;;6.53;;
13753;SDS011;6948;51.216;6.778;2023-06-22T05:00:47;8.43;;;7.37;;
13753;SDS011;6948;51.216;6.778;2023-06-22T05:03:13;9.17;;;7.57;;
13753;SDS011;6948;51.216;6.778;2023-06-22T05:05:43;7.83;;;7.03;;
13753;SDS011;6948;51.216;6.778;2023-06-22T05:08:09;11.50;;;7.33;;
13753;SDS011;6948;51.216;6.778;2023-06-22T05:10:35;12.07;;;7.53;;
13753;SDS011;6948;51.216;6.778;2023-06-22T05:13:01;8.50;;;7.50;;
13753;SDS011;6948;51.216;6.778;2023-06-22T05:15:27;9.60;;;7.23;;
13753;SDS011;6948;51.216;6.778;2023-06-22T05:17:55;9.53;;;7.43;;
13753;SDS011;6948;51.216;6.778;2023-06-22T05:20:23;8.80;;;7.43;;
13753;SDS011;6948;51.216;6.778;2023-06-22T05:22:49;7.83;;;6.60;;
13753;SDS011;6948;51.216;6.778;2023-06-22T05:25:15;7.97;;;7.10;;
13753;SDS011;6948;51.216;6.778;2023-06-22T05:27:41;9.70;;;6.83;;
13753;SDS011;6948;51.216;6.778;2023-06-22T05:30:09;12.40;;;10.60;;
13753;SDS011;6948;51.216;6.778;2023-06-22T05:32:36;11.33;;;7.37;;
13753;SDS011;6948;51.216;6.778;2023-06-22T05:35:03;8.60;;;6.83;;
13753;SDS011;6948;51.216;6.778;2023-06-22T05:37:29;9.40;;;6.63;;
13753;SDS011;6948;51.216;6.778;2023-06-22T05:39:55;11.70;;;6.73;;
13753;SDS011;6948;51.216;6.778;2023-06-22T05:42:22;8.40;;;6.72;;
13753;SDS011;6948;51.216;6.778;2023-06-22T05:44:50;9.48;;;6.32;;
13753;SDS011;6948;51.216;6.778;2023-06-22T05:47:16;7.43;;;6.70;;
13753;SDS011;6948;51.216;6.778;2023-06-22T05:49:42;8.82;;;6.68;;
13753;SDS011;6948;51.216;6.778;2023-06-22T05:52:08;7.68;;;6.53;;
13753;SDS011;6948;51.216;6.778;2023-06-22T05:54:34;9.30;;;7.75;;
13753;SDS011;6948;51.216;6.778;2023-06-22T05:57:00;11.50;;;6.95;;
13753;SDS011;6948;51.216;6.778;2023-06-22T05:59:26;10.52;;;7.30;;
13753;SDS011;6948;51.216;6.778;2023-06-22T06:01:53;8.73;;;7.00;;
13753;SDS011;6948;51.216;6.778;2023-06-22T06:04:19;9.70;;;6.65;;
13753;SDS011;6948;51.216;6.778;2023-06-22T06:06:45;10.45;;;7.60;;
13753;SDS011;6948;51.216;6.778;2023-06-22T06:09:12;9.55;;;7.13;;
13753;SDS011;6948;51.216;6.778;2023-06-22T06:11:38;13.10;;;11.20;;
13753;SDS011;6948;51.216;6.778;2023-06-22T06:14:05;17.67;;;12.40;;
13753;SDS011;6948;51.216;6.778;2023-06-22T06:16:31;14.48;;;9.63;;
13753;SDS011;6948;51.216;6.778;2023-06-22T06:18:57;12.73;;;8.60;;
13753;SDS011;6948;51.216;6.778;2023-06-22T06:21:23;11.65;;;8.15;;
13753;SDS011;6948;51.216;6.778;2023-06-22T06:23:49;11.15;;;7.85;;
13753;SDS011;6948;51.216;6.778;2023-06-22T06:26:15;11.53;;;8.30;;
13753;SDS011;6948;51.216;6.778;2023-06-22T06:28:43;9.20;;;8.00;;
13753;SDS011;6948;51.216;6.778;2023-06-22T06:31:09;8.65;;;7.75;;
13753;SDS011;6948;51.216;6.778;2023-06-22T06:33:37;10.50;;;7.70;;
13753;SDS011;6948;51.216;6.778;2023-06-22T06:36:03;11.17;;;7.60;;
13753;SDS011;6948;51.216;6.778;2023-06-22T06:38:30;13.27;;;7.57;;
13753;SDS011;6948;51.216;6.778;2023-06-22T06:40:56;9.70;;;8.48;;
13753;SDS011;6948;51.216;6.778;2023-06-22T06:43:22;9.80;;;8.38;;
13753;SDS011;6948;51.216;6.778;2023-06-22T06:45:49;14.17;;;8.73;;
13753;SDS011;6948;51.216;6.778;2023-06-22T06:48:15;10.37;;;8.53;;
13753;SDS011;6948;51.216;6.778;2023-06-22T06:50:42;11.63;;;8.23;;
13753;SDS011;6948;51.216;6.778;2023-06-22T06:53:09;10.77;;;9.40;;
13753;SDS011;6948;51.216;6.778;2023-06-22T06:55:35;14.30;;;9.27;;
13753;SDS011;6948;51.216;6.778;2023-06-22T06:58:01;10.10;;;9.10;;
13753;SDS011;6948;51.216;6.778;2023-06-22T07:00:32;12.93;;;9.40;;
13753;SDS011;6948;51.216;6.778;2023-06-22T07:02:58;11.43;;;9.27;;
13753;SDS011;6948;51.216;6.778;2023-06-22T07:05:24;13.33;;;9.77;;
13753;SDS011;6948;51.216;6.778;2023-06-22T07:07:50;13.17;;;9.73;;
13753;SDS011;6948;51.216;6.778;2023-06-22T07:10:18;14.27;;;10.63;;
13753;SDS011;6948;51.216;6.778;2023-06-22T07:12:44;11.80;;;10.23;;
13753;SDS011;6948;51.216;6.778;2023-06-22T07:15:10;13.60;;;11.20;;
13753;SDS011;6948;51.216;6.778;2023-06-22T07:17:38;14.30;;;11.13;;
13753;SDS011;6948;51.216;6.778;2023-06-22T07:20:06;14.57;;;10.60;;
13753;SDS011;6948;51.216;6.778;2023-06-22T07:22:37;13.37;;;10.47;;
13753;SDS011;6948;51.216;6.778;2023-06-22T07:25:03;15.80;;;10.43;;
13753;SDS011;6948;51.216;6.778;2023-06-22T07:27:34;14.73;;;11.13;;
13753;SDS011;6948;51.216;6.778;2023-06-22T07:30:02;13.63;;;11.67;;
13753;SDS011;6948;51.216;6.778;2023-06-22T07:32:28;12.37;;;10.73;;
13753;SDS011;6948;51.216;6.778;2023-06-22T07:34:54;16.30;;;11.43;;
13753;SDS011;6948;51.216;6.778;2023-06-22T07:37:20;14.50;;;11.47;;
13753;SDS011;6948;51.216;6.778;2023-06-22T07:39:46;17.60;;;12.03;;
13753;SDS011;6948;51.216;6.778;2023-06-22T07:42:12;16.20;;;12.30;;
13753;SDS011;6948;51.216;6.778;2023-06-22T07:44:43;13.73;;;11.87;;
13753;SDS011;6948;51.216;6.778;2023-06-22T07:47:09;13.37;;;11.63;;
13753;SDS011;6948;51.216;6.778;2023-06-22T07:49:35;13.53;;;11.97;;
13753;SDS011;6948;51.216;6.778;2023-06-22T07:52:01;13.90;;;12.17;;
13753;SDS011;6948;51.216;6.778;2023-06-22T07:54:27;13.97;;;11.73;;
13753;SDS011;6948;51.216;6.778;2023-06-22T07:56:53;12.60;;;11.30;;
13753;SDS011;6948;51.216;6.778;2023-06-22T07:59:19;13.33;;;11.43;;
13753;SDS011;6948;51.216;6.778;2023-06-22T08:01:45;14.93;;;11.30;;
13753;SDS011;6948;51.216;6.778;2023-06-22T08:04:14;12.87;;;11.00;;
13753;SDS011;6948;51.216;6.778;2023-06-22T08:06:40;11.97;;;10.77;;
13753;SDS011;6948;51.216;6.778;2023-06-22T08:09:06;12.67;;;11.37;;
13753;SDS011;6948;51.216;6.778;2023-06-22T08:11:32;11.83;;;10.63;;
13753;SDS011;6948;51.216;6.778;2023-06-22T08:13:58;13.30;;;11.90;;
13753;SDS011;6948;51.216;6.778;2023-06-22T08:16:24;13.37;;;11.30;;
13753;SDS011;6948;51.216;6.778;2023-06-22T08:18:50;11.83;;;10.63;;
13753;SDS011;6948;51.216;6.778;2023-06-22T08:21:16;12.37;;;9.50;;
13753;SDS011;6948;51.216;6.778;2023-06-22T08:23:42;11.50;;;10.17;;
13753;SDS011;6948;51.216;6.778;2023-06-22T08:26:08;9.70;;;8.80;;
13753;SDS011;6948;51.216;6.778;2023-06-22T08:28:34;12.10;;;8.57;;
13753;SDS011;6948;51.216;6.778;2023-06-22T08:31:01;9.52;;;8.23;;
13753;SDS011;6948;51.216;6.778;2023-06-22T08:33:28;11.77;;;8.07;;
13753;SDS011;6948;51.216;6.778;2023-06-22T08:35:55;9.10;;;8.27;;
13753;SDS011;6948;51.216;6.778;2023-06-22T08:38:21;9.48;;;8.48;;
13753;SDS011;6948;51.216;6.778;2023-06-22T08:40:47;9.95;;;8.88;;
13753;SDS011;6948;51.216;6.778;2023-06-22T08:43:13;9.77;;;8.20;;
13753;SDS011;6948;51.216;6.778;2023-06-22T08:45:39;9.10;;;8.05;;
13753;SDS011;6948;51.216;6.778;2023-06-22T08:48:05;9.77;;;8.02;;
13753;SDS011;6948;51.216;6.778;2023-06-22T08:50:32;10.75;;;8.20;;
13753;SDS011;6948;51.216;6.778;2023-06-22T08:52:58;9.48;;;8.50;;
13753;SDS011;6948;51.216;6.778;2023-06-22T08:55:24;9.80;;;8.80;;
13753;SDS011;6948;51.216;6.778;2023-06-22T08:57:50;13.55;;;8.32;;
13753;SDS011;6948;51.216;6.778;2023-06-22T09:00:16;12.40;;;8.43;;
13753;SDS011;6948;51.216;6.778;2023-06-22T09:02:44;8.40;;;7.45;;
13753;SDS011;6948;51.216;6.778;2023-06-22T09:05:10;10.38;;;7.45;;
13753;SDS011;6948;51.216;6.778;2023-06-22T09:07:36;6.90;;;6.20;;
13753;SDS011;6948;51.216;6.778;2023-06-22T09:10:03;7.63;;;6.82;;
13753;SDS011;6948;51.216;6.778;2023-06-22T09:12:30;9.45;;;6.70;;
13753;SDS011;6948;51.216;6.778;2023-06-22T09:14:57;6.93;;;6.32;;
13753;SDS011;6948;51.216;6.778;2023-06-22T09:17:25;7.45;;;6.75;;
13753;SDS011;6948;51.216;6.778;2023-06-22T09:19:51;8.40;;;7.28;;
13753;SDS011;6948;51.216;6.778;2023-06-22T09:22:17;7.95;;;7.20;;
13753;SDS011;6948;51.216;6.778;2023-06-22T09:24:43;7.68;;;6.78;;
13753;SDS011;6948;51.216;6.778;2023-06-22T09:27:09;7.18;;;6.57;;
13753;SDS011;6948;51.216;6.778;2023-06-22T09:29:35;7.75;;;7.03;;
13753;SDS011;6948;51.216;6.778;2023-06-22T09:32:02;9.38;;;6.30;;
13753;SDS011;6948;51.216;6.778;2023-06-22T09:34:28;6.03;;;5.53;;
13753;SDS011;6948;51.216;6.778;2023-06-22T09:36:56;6.28;;;5.78;;
13753;SDS011;6948;51.216;6.778;2023-06-22T09:39:22;6.20;;;5.70;;
13753;SDS011;6948;51.216;6.778;2023-06-22T09:41:48;5.85;;;5.35;;
13753;SDS011;6948;51.216;6.778;2023-06-22T09:44:14;6.63;;;5.20;;
13753;SDS011;6948;51.216;6.778;2023-06-22T09:46:40;5.78;;;5.22;;
13753;SDS011;6948;51.216;6.778;2023-06-22T09:49:06;5.53;;;5.05;;
13753;SDS011;6948;51.216;6.778;2023-06-22T09:51:32;6.47;;;5.88;;
13753;SDS011;6948;51.216;6.778;2023-06-22T09:53:58;8.05;;;5.35;;
13753;SDS011;6948;51.216;6.778;2023-06-22T09:56:24;6.47;;;5.88;;
13753;SDS011;6948;51.216;6.778;2023-06-22T09:58:53;6.25;;;5.70;;
13753;SDS011;6948;51.216;6.778;2023-06-22T10:01:19;6.43;;;5.47;;
13753;SDS011;6948;51.216;6.778;2023-06-22T10:03:46;6.40;;;5.90;;
13753;SDS011;6948;51.216;6.778;2023-06-22T10:06:12;5.93;;;5.32;;
13753;SDS011;6948;51.216;6.778;2023-06-22T10:08:38;7.10;;;5.45;;
13753;SDS011;6948;51.216;6.778;2023-06-22T10:11:05;6.55;;;5.85;;
13753;SDS011;6948;51.216;6.778;2023-06-22T10:13:31;6.93;;;6.28;;
13753;SDS011;6948;51.216;6.778;2023-06-22T10:15:57;6.00;;;5.45;;
13753;SDS011;6948;51.216;6.778;2023-06-22T10:18:23;6.18;;;5.60;;
13753;SDS011;6948;51.216;6.778;2023-06-22T10:20:50;7.03;;;6.32;;
13753;SDS011;6948;51.216;6.778;2023-06-22T10:23:16;8.10;;;6.35;;
13753;SDS011;6948;51.216;6.778;2023-06-22T10:25:42;8.57;;;6.45;;
13753;SDS011;6948;51.216;6.778;2023-06-22T10:28:09;7.20;;;6.50;;
13753;SDS011;6948;51.216;6.778;2023-06-22T10:30:35;7.10;;;6.40;;
13753;SDS011;6948;51.216;6.778;2023-06-22T10:33:01;8.63;;;6.55;;
13753;SDS011;6948;51.216;6.778;2023-06-22T10:35:27;6.60;;;6.00;;
13753;SDS011;6948;51.216;6.778;2023-06-22T10:37:54;7.97;;;6.25;;
13753;SDS011;6948;51.216;6.778;2023-06-22T10:40:21;7.40;;;6.70;;
13753;SDS011;6948;51.216;6.778;2023-06-22T10:42:47;7.43;;;6.65;;
13753;SDS011;6948;51.216;6.778;2023-06-22T10:45:15;9.23;;;6.97;;
13753;SDS011;6948;51.216;6.778;2023-06-22T10:47:41;8.80;;;8.00;;
13753;SDS011;6948;51.216;6.778;2023-06-22T10:50:07;9.30;;;8.05;;
13753;SDS011;6948;51.216;6.778;2023-06-22T10:52:33;11.52;;;8.90;;
13753;SDS011;6948;51.216;6.778;2023-06-22T10:54:59;9.57;;;8.57;;
13753;SDS011;6948;51.216;6.778;2023-06-22T10:57:25;10.90;;;8.77;;
13753;SDS011;6948;51.216;6.778;2023-06-22T10:59:51;10.88;;;9.80;;
13753;SDS011;6948;51.216;6.778;2023-06-22T11:02:17;12.35;;;9.30;;
13753;SDS011;6948;51.216;6.778;2023-06-22T11:04:43;13.07;;;10.23;;
13753;SDS011;6948;51.216;6.778;2023-06-22T11:07:09;13.82;;;11.27;;
13753;SDS011;6948;51.216;6.778;2023-06-22T11:09:35;13.10;;;11.50;;
13753;SDS011;6948;51.216;6.778;2023-06-22T11:12:03;14.57;;;10.82;;
13753;SDS011;6948;51.216;6.778;2023-06-22T11:14:29;12.95;;;11.13;;
13753;SDS011;6948;51.216;6.778;2023-06-22T11:16:55;11.85;;;10.05;;
13753;SDS011;6948;51.216;6.778;2023-06-22T11:19:21;12.07;;;10.85;;
13753;SDS011;6948;51.216;6.778;2023-06-22T11:21:47;13.63;;;12.23;;
13753;SDS011;6948;51.216;6.778;2023-06-22T11:24:13;13.95;;;12.55;;
13753;SDS011;6948;51.216;6.778;2023-06-22T11:26:40;14.57;;;13.07;;
13753;SDS011;6948;51.216;6.778;2023-06-22T11:29:07;16.15;;;13.30;;
13753;SDS011;6948;51.216;6.778;2023-06-22T11:31:33;17.17;;;14.45;;
13753;SDS011;6948;51.216;6.778;2023-06-22T11:33:59;15.73;;;14.07;;
13753;SDS011;6948;51.216;6.778;2023-06-22T11:36:25;16.35;;;14.68;;
13753;SDS011;6948;51.216;6.778;2023-06-22T11:38:52;19.90;;;15.30;;
13753;SDS011;6948;51.216;6.778;2023-06-22T11:41:18;19.23;;;17.23;;
13753;SDS011;6948;51.216;6.778;2023-06-22T11:43:44;19.02;;;17.13;;
13753;SDS011;6948;51.216;6.778;2023-06-22T11:46:10;21.85;;;18.52;;
13753;SDS011;6948;51.216;6.778;2023-06-22T11:48:36;19.80;;;17.75;;
13753;SDS011;6948;51.216;6.778;2023-06-22T11:51:03;19.67;;;17.77;;
13753;SDS011;6948;51.216;6.778;2023-06-22T11:53:29;21.67;;;19.33;;
13753;SDS011;6948;51.216;6.778;2023-06-22T11:55:55;22.05;;;20.00;;
13753;SDS011;6948;51.216;6.778;2023-06-22T11:58:22;22.25;;;20.08;;
13753;SDS011;6948;51.216;6.778;2023-06-22T12:00:48;22.00;;;19.60;;
13753;SDS011;6948;51.216;6.778;2023-06-22T12:03:15;19.50;;;17.77;;
13753;SDS011;6948;51.216;6.778;2023-06-22T12:05:41;19.93;;;18.00;;
13753;SDS011;6948;51.216;6.778;2023-06-22T12:08:07;20.50;;;18.43;;
13753;SDS011;6948;51.216;6.778;2023-06-22T12:10:33;19.57;;;17.57;;
13753;SDS011;6948;51.216;6.778;2023-06-22T12:13:00;18.87;;;17.07;;
13753;SDS011;6948;51.216;6.778;2023-06-22T12:15:26;17.02;;;15.38;;
13753;SDS011;6948;51.216;6.778;2023-06-22T12:17:52;18.42;;;16.65;;
13753;SDS011;6948;51.216;6.778;2023-06-22T12:20:19;21.27;;;19.20;;
13753;SDS011;6948;51.216;6.778;2023-06-22T12:22:45;19.13;;;17.13;;
13753;SDS011;6948;51.216;6.778;2023-06-22T12:25:12;21.70;;;19.23;;
13753;SDS011;6948;51.216;6.778;2023-06-22T12:27:38;22.25;;;20.08;;
13753;SDS011;6948;51.216;6.778;2023-06-22T12:30:04;22.80;;;20.58;;
13753;SDS011;6948;51.216;6.778;2023-06-22T12:32:31;23.48;;;21.10;;
13753;SDS011;6948;51.216;6.778;2023-06-22T12:34:57;24.25;;;21.67;;
13753;SDS011;6948;51.216;6.778;2023-06-22T12:37:23;24.77;;;22.27;;
13753;SDS011;6948;51.216;6.778;2023-06-22T12:39:49;24.67;;;22.27;;
13753;SDS011;6948;51.216;6.778;2023-06-22T12:42:15;23.67;;;21.23;;
13753;SDS011;6948;51.216;6.778;2023-06-22T12:44:42;24.60;;;22.15;;
13753;SDS011;6948;51.216;6.778;2023-06-22T12:47:08;24.83;;;22.42;;
13753;SDS011;6948;51.216;6.778;2023-06-22T12:49:34;24.40;;;22.15;;
13753;SDS011;6948;51.216;6.778;2023-06-22T12:52:01;23.63;;;21.42;;
13753;SDS011;6948;51.216;6.778;2023-06-22T12:54:27;26.00;;;23.30;;
13753;SDS011;6948;51.216;6.778;2023-06-22T12:56:54;25.08;;;22.67;;
13753;SDS011;6948;51.216;6.778;2023-06-22T12:59:20;25.90;;;23.58;;
13753;SDS011;6948;51.216;6.778;2023-06-22T13:01:46;27.33;;;24.80;;
13753;SDS011;6948;51.216;6.778;2023-06-22T13:04:12;25.25;;;22.70;;
13753;SDS011;6948;51.216;6.778;2023-06-22T13:06:40;26.13;;;23.40;;
13753;SDS011;6948;51.216;6.778;2023-06-22T13:09:06;26.80;;;24.25;;
13753;SDS011;6948;51.216;6.778;2023-06-22T13:11:33;26.38;;;23.88;;
13753;SDS011;6948;51.216;6.778;2023-06-22T13:13:59;25.67;;;23.30;;
13753;SDS011;6948;51.216;6.778;2023-06-22T13:16:25;25.25;;;22.73;;
13753;SDS011;6948;51.216;6.778;2023-06-22T13:18:51;25.38;;;22.95;;
13753;SDS011;6948;51.216;6.778;2023-06-22T13:21:17;26.13;;;23.50;;
13753;SDS011;6948;51.216;6.778;2023-06-22T13:23:43;27.70;;;24.90;;
13753;SDS011;6948;51.216;6.778;2023-06-22T13:26:10;27.42;;;24.77;;
13753;SDS011;6948;51.216;6.778;2023-06-22T13:28:36;28.13;;;25.45;;
13753;SDS011;6948;51.216;6.778;2023-06-22T13:31:02;28.42;;;25.73;;
13753;SDS011;6948;51.216;6.778;2023-06-22T13:33:28;27.98;;;25.25;;
13753;SDS011;6948;51.216;6.778;2023-06-22T13:35:54;26.65;;;23.95;;
13753;SDS011;6948;51.216;6.778;2023-06-22T13:38:20;28.65;;;26.05;;
13753;SDS011;6948;51.216;6.778;2023-06-22T13:40:47;26.55;;;23.90;;
13753;SDS011;6948;51.216;6.778;2023-06-22T13:43:13;25.50;;;22.98;;
13753;SDS011;6948;51.216;6.778;2023-06-22T13:45:39;27.42;;;24.88;;
13753;SDS011;6948;51.216;6.778;2023-06-22T13:48:05;24.58;;;22.30;;
13753;SDS011;6948;51.216;6.778;2023-06-22T13:50:31;27.30;;;24.60;;
13753;SDS011;6948;51.216;6.778;2023-06-22T13:52:57;24.92;;;22.75;;
13753;SDS011;6948;51.216;6.778;2023-06-22T13:55:23;26.30;;;23.50;;
13753;SDS011;6948;51.216;6.778;2023-06-22T13:57:49;24.50;;;22.30;;
13753;SDS011;6948;51.216;6.778;2023-06-22T14:00:16;23.30;;;21.17;;
13753;SDS011;6948;51.216;6.778;2023-06-22T14:02:42;22.58;;;20.48;;
13753;SDS011;6948;51.216;6.778;2023-06-22T14:05:08;22.45;;;20.35;;
13753;SDS011;6948;51.216;6.778;2023-06-22T14:07:36;22.15;;;19.98;;
13753;SDS011;6948;51.216;6.778;2023-06-22T14:10:02;21.65;;;19.52;;
13753;SDS011;6948;51.216;6.778;2023-06-22T14:12:28;22.20;;;20.15;;
13753;SDS011;6948;51.216;6.778;2023-06-22T14:14:54;22.63;;;20.52;;
13753;SDS011;6948;51.216;6.778;2023-06-22T14:17:20;23.30;;;20.90;;
13753;SDS011;6948;51.216;6.778;2023-06-22T14:19:50;22.67;;;20.63;;
13753;SDS011;6948;51.216;6.778;2023-06-22T14:22:17;23.33;;;21.10;;
13753;SDS011;6948;51.216;6.778;2023-06-22T14:24:43;22.35;;;20.35;;
13753;SDS011;6948;51.216;6.778;2023-06-22T14:27:09;22.20;;;20.00;;
13753;SDS011;6948;51.216;6.778;2023-06-22T14:29:36;21.75;;;19.52;;
13753;SDS011;6948;51.216;6.778;2023-06-22T14:32:02;22.55;;;20.45;;
13753;SDS011;6948;51.216;6.778;2023-06-22T14:34:29;23.13;;;20.92;;
13753;SDS011;6948;51.216;6.778;2023-06-22T14:36:55;22.48;;;20.17;;
13753;SDS011;6948;51.216;6.778;2023-06-22T14:39:21;21.15;;;19.15;;
13753;SDS011;6948;51.216;6.778;2023-06-22T14:41:47;20.92;;;18.90;;
13753;SDS011;6948;51.216;6.778;2023-06-22T14:44:13;20.95;;;19.02;;
13753;SDS011;6948;51.216;6.778;2023-06-22T14:46:39;22.70;;;20.35;;
13753;SDS011;6948;51.216;6.778;2023-06-22T14:49:05;22.35;;;20.27;;
13753;SDS011;6948;51.216;6.778;2023-06-22T14:51:31;22.50;;;20.57;;